sensor_id;sensor_type;location;lat;lon;timestamp;temperature;humidity
28761;DHT22;15917;50.014;8.352;2023-11-21T00:00:20;9.40;99.90
28761;DHT22;15917;50.014;8.352;2023-11-21T00:02:45;9.40;99.90
28761;DHT22;15917;50.014;8.352;2023-11-21T00:05:12;9.40;99.90
28761;DHT22;15917;50.014;8.352;2023-11-21T00:07:42;9.40;99.90
28761;DHT22;15917;50.014;8.352;2023-11-21T00:10:08;9.30;99.90
28761;DHT22;15917;50.014;8.352;2023-11-21T00:12:35;9.40;99.90
28761;DHT22;15917;50.014;8.352;2023-11-21T00:15:01;9.40;99.90
28761;DHT22;15917;50.014;8.352;2023-11-21T00:17:27;9.40;99.90
28761;DHT22;15917;50.014;8.352;2023-11-21T00:19:53;9.40;99.90
28761;DHT22;15917;50.014;8.352;2023-11-21T00:22:19;9.40;99.90
28761;DHT22;15917;50.014;8.352;2023-11-21T00:24:45;9.50;99.90
28761;DHT22;15917;50.014;8.352;2023-11-21T00:27:11;9.40;99.90
28761;DHT22;15917;50.014;8.352;2023-11-21T00:29:37;9.40;99.90
28761;DHT22;15917;50.014;8.352;2023-11-21T00:32:05;9.40;99.90
28761;DHT22;15917;50.014;8.352;2023-11-21T00:34:31;9.40;99.90
28761;DHT22;15917;50.014;8.352;2023-11-21T00:36:57;9.40;99.90
28761;DHT22;15917;50.014;8.352;2023-11-21T00:39:23;9.40;99.90
28761;DHT22;15917;50.014;8.352;2023-11-21T00:41:49;9.50;99.90
28761;DHT22;15917;50.014;8.352;2023-11-21T00:44:14;9.50;99.90
28761;DHT22;15917;50.014;8.352;2023-11-21T00:46:41;9.50;99.90
28761;DHT22;15917;50.014;8.352;2023-11-21T00:49:07;9.50;99.90
28761;DHT22;15917;50.014;8.352;2023-11-21T00:51:33;9.50;99.90
28761;DHT22;15917;50.014;8.352;2023-11-21T00:53:59;9.50;99.90
28761;DHT22;15917;50.014;8.352;2023-11-21T00:56:25;9.50;99.90
28761;DHT22;15917;50.014;8.352;2023-11-21T00:58:51;9.50;99.90
28761;DHT22;15917;50.014;8.352;2023-11-21T01:01:18;9.50;99.90
28761;DHT22;15917;50.014;8.352;2023-11-21T01:03:47;9.50;99.90
28761;DHT22;15917;50.014;8.352;2023-11-21T01:06:14;9.50;99.90
28761;DHT22;15917;50.014;8.352;2023-11-21T01:08:41;9.50;99.90
28761;DHT22;15917;50.014;8.352;2023-11-21T01:11:08;9.50;99.90
28761;DHT22;15917;50.014;8.352;2023-11-21T01:13:35;9.50;99.90
28761;DHT22;15917;50.014;8.352;2023-11-21T01:16:01;9.60;99.90
28761;DHT22;15917;50.014;8.352;2023-11-21T01:18:27;9.60;99.90
28761;DHT22;15917;50.014;8.352;2023-11-21T01:20:54;9.60;99.90
28761;DHT22;15917;50.014;8.352;2023-11-21T01:23:20;9.60;99.90
28761;DHT22;15917;50.014;8.352;2023-11-21T01:25:46;9.70;99.90
28761;DHT22;15917;50.014;8.352;2023-11-21T01:28:11;9.70;99.90
28761;DHT22;15917;50.014;8.352;2023-11-21T01:30:37;9.70;99.90
28761;DHT22;15917;50.014;8.352;2023-11-21T01:33:03;9.70;99.90
28761;DHT22;15917;50.014;8.352;2023-11-21T01:35:30;9.70;99.90
28761;DHT22;15917;50.014;8.352;2023-11-21T01:37:55;9.70;99.90
28761;DHT22;15917;50.014;8.352;2023-11-21T01:40:21;9.70;99.90
28761;DHT22;15917;50.014;8.352;2023-11-21T01:42:47;9.70;99.90
28761;DHT22;15917;50.014;8.352;2023-11-21T01:45:13;9.70;99.90
28761;DHT22;15917;50.014;8.352;2023-11-21T01:47:41;9.70;99.90
28761;DHT22;15917;50.014;8.352;2023-11-21T01:50:08;9.70;99.90
28761;DHT22;15917;50.014;8.352;2023-11-21T01:52:38;9.70;99.90
28761;DHT22;15917;50.014;8.352;2023-11-21T01:55:06;9.70;99.90
28761;DHT22;15917;50.014;8.352;2023-11-21T01:57:33;9.70;99.90
28761;DHT22;15917;50.014;8.352;2023-11-21T02:00:02;9.70;99.90
28761;DHT22;15917;50.014;8.352;2023-11-21T02:02:43;9.80;99.90
28761;DHT22;15917;50.014;8.352;2023-11-21T02:05:10;9.80;99.90
28761;DHT22;15917;50.014;8.352;2023-11-21T02:07:39;9.80;99.90
28761;DHT22;15917;50.014;8.352;2023-11-21T02:10:06;9.80;99.90
28761;DHT22;15917;50.014;8.352;2023-11-21T02:12:31;9.80;99.90
28761;DHT22;15917;50.014;8.352;2023-11-21T02:14:57;9.80;99.90
28761;DHT22;15917;50.014;8.352;2023-11-21T02:17:23;9.80;99.90
28761;DHT22;15917;50.014;8.352;2023-11-21T02:19:48;9.80;99.90
28761;DHT22;15917;50.014;8.352;2023-11-21T02:22:17;9.70;99.90
28761;DHT22;15917;50.014;8.352;2023-11-21T02:24:45;9.70;99.90
28761;DHT22;15917;50.014;8.352;2023-11-21T02:27:12;9.80;99.90
28761;DHT22;15917;50.014;8.352;2023-11-21T02:29:38;9.70;99.90
28761;DHT22;15917;50.014;8.352;2023-11-21T02:32:03;9.70;99.90
28761;DHT22;15917;50.014;8.352;2023-11-21T02:34:29;9.80;99.90
28761;DHT22;15917;50.014;8.352;2023-11-21T02:36:55;9.80;99.90
28761;DHT22;15917;50.014;8.352;2023-11-21T02:39:21;9.80;99.90
28761;DHT22;15917;50.014;8.352;2023-11-21T02:41:47;9.70;99.90
28761;DHT22;15917;50.014;8.352;2023-11-21T02:44:13;9.80;99.90
28761;DHT22;15917;50.014;8.352;2023-11-21T02:46:39;9.80;99.90
28761;DHT22;15917;50.014;8.352;2023-11-21T02:49:06;9.80;99.90
28761;DHT22;15917;50.014;8.352;2023-11-21T02:51:32;9.80;99.90
28761;DHT22;15917;50.014;8.352;2023-11-21T02:53:59;9.80;99.90
28761;DHT22;15917;50.014;8.352;2023-11-21T02:56:28;9.80;99.90
28761;DHT22;15917;50.014;8.352;2023-11-21T02:58:57;9.80;99.90
28761;DHT22;15917;50.014;8.352;2023-11-21T03:01:23;9.70;99.90
28761;DHT22;15917;50.014;8.352;2023-11-21T03:03:53;9.80;99.90
28761;DHT22;15917;50.014;8.352;2023-11-21T03:06:19;9.70;99.90
28761;DHT22;15917;50.014;8.352;2023-11-21T03:08:45;9.70;99.90
28761;DHT22;15917;50.014;8.352;2023-11-21T03:11:12;9.80;99.90
28761;DHT22;15917;50.014;8.352;2023-11-21T03:13:42;9.80;99.90
28761;DHT22;15917;50.014;8.352;2023-11-21T03:16:11;9.80;99.90
28761;DHT22;15917;50.014;8.352;2023-11-21T03:18:38;9.80;99.90
28761;DHT22;15917;50.014;8.352;2023-11-21T03:21:05;9.80;99.90
28761;DHT22;15917;50.014;8.352;2023-11-21T03:23:31;9.80;99.90
28761;DHT22;15917;50.014;8.352;2023-11-21T03:25:57;9.80;99.90
28761;DHT22;15917;50.014;8.352;2023-11-21T03:28:23;9.80;99.90
28761;DHT22;15917;50.014;8.352;2023-11-21T03:30:49;9.80;99.90
28761;DHT22;15917;50.014;8.352;2023-11-21T03:33:15;9.80;99.90
28761;DHT22;15917;50.014;8.352;2023-11-21T03:35:40;9.80;99.90
28761;DHT22;15917;50.014;8.352;2023-11-21T03:38:07;9.70;99.90
28761;DHT22;15917;50.014;8.352;2023-11-21T03:40:33;9.70;99.90
28761;DHT22;15917;50.014;8.352;2023-11-21T03:42:58;9.70;99.90
28761;DHT22;15917;50.014;8.352;2023-11-21T03:45:24;9.60;99.90
28761;DHT22;15917;50.014;8.352;2023-11-21T03:47:50;9.60;99.90
28761;DHT22;15917;50.014;8.352;2023-11-21T03:50:15;9.60;99.90
28761;DHT22;15917;50.014;8.352;2023-11-21T03:52:43;9.60;99.90
28761;DHT22;15917;50.014;8.352;2023-11-21T03:55:09;9.50;99.90
28761;DHT22;15917;50.014;8.352;2023-11-21T03:57:36;9.60;99.90
28761;DHT22;15917;50.014;8.352;2023-11-21T04:00:03;9.50;99.90
28761;DHT22;15917;50.014;8.352;2023-11-21T04:02:37;9.50;99.90
28761;DHT22;15917;50.014;8.352;2023-11-21T04:05:03;9.50;99.90
28761;DHT22;15917;50.014;8.352;2023-11-21T04:07:30;9.40;99.90
28761;DHT22;15917;50.014;8.352;2023-11-21T04:09:55;9.40;99.90
28761;DHT22;15917;50.014;8.352;2023-11-21T04:12:22;9.40;99.90
28761;DHT22;15917;50.014;8.352;2023-11-21T04:14:47;9.30;99.90
28761;DHT22;15917;50.014;8.352;2023-11-21T04:17:13;9.40;99.90
28761;DHT22;15917;50.014;8.352;2023-11-21T04:19:38;9.40;99.90
28761;DHT22;15917;50.014;8.352;2023-11-21T04:22:04;9.40;99.90
28761;DHT22;15917;50.014;8.352;2023-11-21T04:24:30;9.50;99.90
28761;DHT22;15917;50.014;8.352;2023-11-21T04:26:55;9.40;99.90
28761;DHT22;15917;50.014;8.352;2023-11-21T04:29:21;9.40;99.90
28761;DHT22;15917;50.014;8.352;2023-11-21T04:31:47;9.50;99.90
28761;DHT22;15917;50.014;8.352;2023-11-21T04:34:14;9.50;99.90
28761;DHT22;15917;50.014;8.352;2023-11-21T04:36:40;9.50;99.90
28761;DHT22;15917;50.014;8.352;2023-11-21T04:39:05;9.50;99.90
28761;DHT22;15917;50.014;8.352;2023-11-21T04:41:32;9.50;99.90
28761;DHT22;15917;50.014;8.352;2023-11-21T04:43:58;9.50;99.90
28761;DHT22;15917;50.014;8.352;2023-11-21T04:46:26;9.50;99.90
28761;DHT22;15917;50.014;8.352;2023-11-21T04:48:52;9.50;99.90
28761;DHT22;15917;50.014;8.352;2023-11-21T04:51:17;9.50;99.90
28761;DHT22;15917;50.014;8.352;2023-11-21T04:53:43;9.50;99.90
28761;DHT22;15917;50.014;8.352;2023-11-21T04:56:08;9.40;99.90
28761;DHT22;15917;50.014;8.352;2023-11-21T04:58:34;9.40;99.90
28761;DHT22;15917;50.014;8.352;2023-11-21T05:01:00;9.40;99.90
28761;DHT22;15917;50.014;8.352;2023-11-21T05:03:26;9.40;99.90
28761;DHT22;15917;50.014;8.352;2023-11-21T05:05:52;9.40;99.90
28761;DHT22;15917;50.014;8.352;2023-11-21T05:08:17;9.40;99.90
28761;DHT22;15917;50.014;8.352;2023-11-21T05:10:44;9.40;99.90
28761;DHT22;15917;50.014;8.352;2023-11-21T05:13:10;9.40;99.90
28761;DHT22;15917;50.014;8.352;2023-11-21T05:15:36;9.40;99.90
28761;DHT22;15917;50.014;8.352;2023-11-21T05:18:02;9.40;99.90
28761;DHT22;15917;50.014;8.352;2023-11-21T05:20:28;9.50;99.90
28761;DHT22;15917;50.014;8.352;2023-11-21T05:22:53;9.50;99.90
28761;DHT22;15917;50.014;8.352;2023-11-21T05:25:19;9.50;99.90
28761;DHT22;15917;50.014;8.352;2023-11-21T05:27:48;9.50;99.90
28761;DHT22;15917;50.014;8.352;2023-11-21T05:30:14;9.50;99.90
28761;DHT22;15917;50.014;8.352;2023-11-21T05:32:41;9.50;99.90
28761;DHT22;15917;50.014;8.352;2023-11-21T05:35:10;9.60;99.90
28761;DHT22;15917;50.014;8.352;2023-11-21T05:37:40;9.60;99.90
28761;DHT22;15917;50.014;8.352;2023-11-21T05:40:07;9.60;99.90
28761;DHT22;15917;50.014;8.352;2023-11-21T05:42:36;9.60;99.90
28761;DHT22;15917;50.014;8.352;2023-11-21T05:45:03;9.60;99.90
28761;DHT22;15917;50.014;8.352;2023-11-21T05:47:41;9.60;99.90
28761;DHT22;15917;50.014;8.352;2023-11-21T05:50:08;10.00;99.90
28761;DHT22;15917;50.014;8.352;2023-11-21T05:52:38;11.30;99.90
28761;DHT22;15917;50.014;8.352;2023-11-21T05:55:05;11.60;99.90
28761;DHT22;15917;50.014;8.352;2023-11-21T05:57:35;11.20;99.90
28761;DHT22;15917;50.014;8.352;2023-11-21T06:00:04;10.90;99.90
28761;DHT22;15917;50.014;8.352;2023-11-21T06:02:40;10.50;99.90
28761;DHT22;15917;50.014;8.352;2023-11-21T06:05:09;10.40;99.90
28761;DHT22;15917;50.014;8.352;2023-11-21T06:07:35;10.20;99.90
28761;DHT22;15917;50.014;8.352;2023-11-21T06:10:03;10.20;99.90
28761;DHT22;15917;50.014;8.352;2023-11-21T06:12:33;10.10;99.90
28761;DHT22;15917;50.014;8.352;2023-11-21T06:15:05;10.00;99.90
28761;DHT22;15917;50.014;8.352;2023-11-21T06:17:32;10.00;99.90
28761;DHT22;15917;50.014;8.352;2023-11-21T06:19:59;9.90;99.90
28761;DHT22;15917;50.014;8.352;2023-11-21T06:22:24;9.80;99.90
28761;DHT22;15917;50.014;8.352;2023-11-21T06:24:50;9.80;99.90
28761;DHT22;15917;50.014;8.352;2023-11-21T06:27:15;9.80;99.90
28761;DHT22;15917;50.014;8.352;2023-11-21T06:29:41;9.80;99.90
28761;DHT22;15917;50.014;8.352;2023-11-21T06:32:07;9.80;99.90
28761;DHT22;15917;50.014;8.352;2023-11-21T06:34:33;9.80;99.90
28761;DHT22;15917;50.014;8.352;2023-11-21T06:36:59;9.80;99.90
28761;DHT22;15917;50.014;8.352;2023-11-21T06:39:24;9.80;99.90
28761;DHT22;15917;50.014;8.352;2023-11-21T06:41:50;9.80;99.90
28761;DHT22;15917;50.014;8.352;2023-11-21T06:44:16;9.70;99.90
28761;DHT22;15917;50.014;8.352;2023-11-21T06:46:41;9.70;99.90
28761;DHT22;15917;50.014;8.352;2023-11-21T06:49:08;9.70;99.90
28761;DHT22;15917;50.014;8.352;2023-11-21T06:51:34;9.70;99.90
28761;DHT22;15917;50.014;8.352;2023-11-21T06:54:00;9.70;99.90
28761;DHT22;15917;50.014;8.352;2023-11-21T06:56:25;9.70;99.90
28761;DHT22;15917;50.014;8.352;2023-11-21T06:58:51;9.70;99.90
28761;DHT22;15917;50.014;8.352;2023-11-21T07:01:19;9.70;99.90
28761;DHT22;15917;50.014;8.352;2023-11-21T07:03:45;9.70;99.90
28761;DHT22;15917;50.014;8.352;2023-11-21T07:06:10;9.70;99.90
28761;DHT22;15917;50.014;8.352;2023-11-21T07:08:37;9.70;99.90
28761;DHT22;15917;50.014;8.352;2023-11-21T07:11:03;9.70;99.90
28761;DHT22;15917;50.014;8.352;2023-11-21T07:16:08;9.70;99.90
28761;DHT22;15917;50.014;8.352;2023-11-21T07:18:35;9.70;99.90
28761;DHT22;15917;50.014;8.352;2023-11-21T07:21:01;9.70;99.90
28761;DHT22;15917;50.014;8.352;2023-11-21T07:23:27;9.70;99.90
28761;DHT22;15917;50.014;8.352;2023-11-21T07:25:53;9.70;99.90
28761;DHT22;15917;50.014;8.352;2023-11-21T07:28:18;9.70;99.90
28761;DHT22;15917;50.014;8.352;2023-11-21T07:30:44;9.80;99.90
28761;DHT22;15917;50.014;8.352;2023-11-21T07:33:10;9.80;99.90
28761;DHT22;15917;50.014;8.352;2023-11-21T07:35:35;9.80;99.90
28761;DHT22;15917;50.014;8.352;2023-11-21T07:38:01;9.80;99.90
28761;DHT22;15917;50.014;8.352;2023-11-21T07:40:26;9.80;99.90
28761;DHT22;15917;50.014;8.352;2023-11-21T07:42:53;9.90;99.90
28761;DHT22;15917;50.014;8.352;2023-11-21T07:45:18;9.90;99.90
28761;DHT22;15917;50.014;8.352;2023-11-21T07:47:44;10.00;99.90
28761;DHT22;15917;50.014;8.352;2023-11-21T07:50:10;10.00;99.90
28761;DHT22;15917;50.014;8.352;2023-11-21T07:52:35;10.00;99.90
28761;DHT22;15917;50.014;8.352;2023-11-21T07:55:01;10.00;99.90
28761;DHT22;15917;50.014;8.352;2023-11-21T07:57:27;10.00;99.90
28761;DHT22;15917;50.014;8.352;2023-11-21T07:59:52;10.10;99.90
28761;DHT22;15917;50.014;8.352;2023-11-21T08:02:20;10.10;99.90
28761;DHT22;15917;50.014;8.352;2023-11-21T08:04:46;10.10;99.90
28761;DHT22;15917;50.014;8.352;2023-11-21T08:07:15;10.10;99.90
28761;DHT22;15917;50.014;8.352;2023-11-21T08:09:42;10.20;99.90
28761;DHT22;15917;50.014;8.352;2023-11-21T08:12:09;10.20;99.90
28761;DHT22;15917;50.014;8.352;2023-11-21T08:14:36;10.20;99.90
28761;DHT22;15917;50.014;8.352;2023-11-21T08:17:04;10.20;99.90
28761;DHT22;15917;50.014;8.352;2023-11-21T08:19:29;10.30;99.90
28761;DHT22;15917;50.014;8.352;2023-11-21T08:21:55;10.30;99.90
28761;DHT22;15917;50.014;8.352;2023-11-21T08:24:21;10.30;99.90
28761;DHT22;15917;50.014;8.352;2023-11-21T08:26:47;10.30;99.90
28761;DHT22;15917;50.014;8.352;2023-11-21T08:29:13;10.30;99.90
28761;DHT22;15917;50.014;8.352;2023-11-21T08:31:38;10.30;99.90
28761;DHT22;15917;50.014;8.352;2023-11-21T08:34:04;10.20;99.90
28761;DHT22;15917;50.014;8.352;2023-11-21T08:36:30;10.30;99.90
28761;DHT22;15917;50.014;8.352;2023-11-21T08:38:56;10.30;99.90
28761;DHT22;15917;50.014;8.352;2023-11-21T08:41:22;10.30;99.90
28761;DHT22;15917;50.014;8.352;2023-11-21T08:43:51;10.30;99.90
28761;DHT22;15917;50.014;8.352;2023-11-21T08:46:17;10.30;99.90
28761;DHT22;15917;50.014;8.352;2023-11-21T08:48:43;10.30;99.90
28761;DHT22;15917;50.014;8.352;2023-11-21T08:51:10;10.30;99.90
28761;DHT22;15917;50.014;8.352;2023-11-21T08:53:37;10.30;99.90
28761;DHT22;15917;50.014;8.352;2023-11-21T08:56:03;10.30;99.90
28761;DHT22;15917;50.014;8.352;2023-11-21T08:58:30;10.30;99.90
28761;DHT22;15917;50.014;8.352;2023-11-21T09:00:57;10.40;99.90
28761;DHT22;15917;50.014;8.352;2023-11-21T09:03:23;10.30;99.90
28761;DHT22;15917;50.014;8.352;2023-11-21T09:05:48;10.40;99.90
28761;DHT22;15917;50.014;8.352;2023-11-21T09:08:14;10.30;99.90
28761;DHT22;15917;50.014;8.352;2023-11-21T09:10:40;10.30;99.90
28761;DHT22;15917;50.014;8.352;2023-11-21T09:13:06;10.40;99.90
28761;DHT22;15917;50.014;8.352;2023-11-21T09:15:34;10.30;99.90
28761;DHT22;15917;50.014;8.352;2023-11-21T09:18:00;10.40;99.90
28761;DHT22;15917;50.014;8.352;2023-11-21T09:20:27;10.40;99.90
28761;DHT22;15917;50.014;8.352;2023-11-21T09:22:52;10.40;99.90
28761;DHT22;15917;50.014;8.352;2023-11-21T09:25:19;10.50;99.90
28761;DHT22;15917;50.014;8.352;2023-11-21T09:27:46;10.50;99.90
28761;DHT22;15917;50.014;8.352;2023-11-21T09:30:12;10.50;99.90
28761;DHT22;15917;50.014;8.352;2023-11-21T09:32:39;10.50;99.90
28761;DHT22;15917;50.014;8.352;2023-11-21T09:35:06;10.50;99.90
28761;DHT22;15917;50.014;8.352;2023-11-21T09:37:33;10.50;99.90
28761;DHT22;15917;50.014;8.352;2023-11-21T09:39:59;10.50;99.90
28761;DHT22;15917;50.014;8.352;2023-11-21T09:42:35;10.60;99.90
28761;DHT22;15917;50.014;8.352;2023-11-21T09:45:18;10.60;99.90
28761;DHT22;15917;50.014;8.352;2023-11-21T09:47:46;10.60;99.90
28761;DHT22;15917;50.014;8.352;2023-11-21T09:50:17;10.60;99.90
28761;DHT22;15917;50.014;8.352;2023-11-21T09:55:37;10.70;99.90
28761;DHT22;15917;50.014;8.352;2023-11-21T09:58:04;10.80;99.90
28761;DHT22;15917;50.014;8.352;2023-11-21T10:00:33;10.90;99.90
28761;DHT22;15917;50.014;8.352;2023-11-21T10:02:59;10.90;99.90
28761;DHT22;15917;50.014;8.352;2023-11-21T10:05:25;11.00;99.90
28761;DHT22;15917;50.014;8.352;2023-11-21T10:07:51;11.00;99.90
28761;DHT22;15917;50.014;8.352;2023-11-21T10:10:22;10.90;99.90
28761;DHT22;15917;50.014;8.352;2023-11-21T10:12:50;10.90;99.90
28761;DHT22;15917;50.014;8.352;2023-11-21T10:15:22;10.90;99.90
28761;DHT22;15917;50.014;8.352;2023-11-21T10:17:49;10.90;99.90
28761;DHT22;15917;50.014;8.352;2023-11-21T10:20:15;11.00;99.90
28761;DHT22;15917;50.014;8.352;2023-11-21T10:22:42;11.00;99.90
28761;DHT22;15917;50.014;8.352;2023-11-21T10:25:12;11.10;99.90
28761;DHT22;15917;50.014;8.352;2023-11-21T10:27:40;11.20;99.90
28761;DHT22;15917;50.014;8.352;2023-11-21T10:30:07;11.20;99.90
28761;DHT22;15917;50.014;8.352;2023-11-21T10:32:42;11.30;99.90
28761;DHT22;15917;50.014;8.352;2023-11-21T10:35:08;11.30;99.90
28761;DHT22;15917;50.014;8.352;2023-11-21T10:37:39;11.40;99.90
28761;DHT22;15917;50.014;8.352;2023-11-21T10:40:07;11.50;99.90
28761;DHT22;15917;50.014;8.352;2023-11-21T10:42:33;11.60;99.90
28761;DHT22;15917;50.014;8.352;2023-11-21T10:44:59;11.50;99.90
28761;DHT22;15917;50.014;8.352;2023-11-21T10:47:26;11.60;99.90
28761;DHT22;15917;50.014;8.352;2023-11-21T10:49:52;11.70;99.90
28761;DHT22;15917;50.014;8.352;2023-11-21T10:52:20;11.80;99.90
28761;DHT22;15917;50.014;8.352;2023-11-21T10:54:46;12.00;99.90
28761;DHT22;15917;50.014;8.352;2023-11-21T10:57:17;12.20;99.90
28761;DHT22;15917;50.014;8.352;2023-11-21T10:59:47;12.50;99.90
28761;DHT22;15917;50.014;8.352;2023-11-21T11:02:25;12.80;99.90
28761;DHT22;15917;50.014;8.352;2023-11-21T11:04:53;13.20;99.90
28761;DHT22;15917;50.014;8.352;2023-11-21T11:07:21;13.40;99.90
28761;DHT22;15917;50.014;8.352;2023-11-21T11:09:49;13.60;99.90
28761;DHT22;15917;50.014;8.352;2023-11-21T11:12:15;13.80;99.90
28761;DHT22;15917;50.014;8.352;2023-11-21T11:14:42;14.10;99.90
28761;DHT22;15917;50.014;8.352;2023-11-21T11:17:10;14.60;99.90
28761;DHT22;15917;50.014;8.352;2023-11-21T11:19:36;14.90;99.90
28761;DHT22;15917;50.014;8.352;2023-11-21T11:22:28;15.00;99.90
28761;DHT22;15917;50.014;8.352;2023-11-21T11:28:07;14.70;99.90
28761;DHT22;15917;50.014;8.352;2023-11-21T11:33:39;14.30;99.90
28761;DHT22;15917;50.014;8.352;2023-11-21T11:36:17;14.50;99.90
28761;DHT22;15917;50.014;8.352;2023-11-21T11:38:47;14.60;99.90
28761;DHT22;15917;50.014;8.352;2023-11-21T11:41:25;14.40;99.90
28761;DHT22;15917;50.014;8.352;2023-11-21T11:43:51;14.40;99.90
28761;DHT22;15917;50.014;8.352;2023-11-21T11:46:18;14.30;99.90
28761;DHT22;15917;50.014;8.352;2023-11-21T11:48:44;14.30;99.90
28761;DHT22;15917;50.014;8.352;2023-11-21T11:51:15;14.20;99.90
28761;DHT22;15917;50.014;8.352;2023-11-21T11:53:47;14.10;99.90
28761;DHT22;15917;50.014;8.352;2023-11-21T11:56:28;14.00;99.90
28761;DHT22;15917;50.014;8.352;2023-11-21T11:58:58;14.00;99.90
28761;DHT22;15917;50.014;8.352;2023-11-21T12:01:26;14.10;99.90
28761;DHT22;15917;50.014;8.352;2023-11-21T12:06:36;13.90;99.90
28761;DHT22;15917;50.014;8.352;2023-11-21T12:09:02;13.70;99.90
28761;DHT22;15917;50.014;8.352;2023-11-21T12:11:31;13.40;99.90
28761;DHT22;15917;50.014;8.352;2023-11-21T12:13:58;13.10;99.90
28761;DHT22;15917;50.014;8.352;2023-11-21T12:16:25;12.90;99.90
28761;DHT22;15917;50.014;8.352;2023-11-21T12:18:53;12.70;99.90
28761;DHT22;15917;50.014;8.352;2023-11-21T12:21:20;12.50;99.90
28761;DHT22;15917;50.014;8.352;2023-11-21T12:23:46;12.30;99.90
28761;DHT22;15917;50.014;8.352;2023-11-21T12:26:13;12.20;99.90
28761;DHT22;15917;50.014;8.352;2023-11-21T12:28:39;12.10;99.90
28761;DHT22;15917;50.014;8.352;2023-11-21T12:31:05;12.00;99.90
28761;DHT22;15917;50.014;8.352;2023-11-21T12:33:33;12.00;99.90
28761;DHT22;15917;50.014;8.352;2023-11-21T12:35:58;12.10;99.90
28761;DHT22;15917;50.014;8.352;2023-11-21T12:38:24;12.10;99.90
28761;DHT22;15917;50.014;8.352;2023-11-21T12:40:50;12.10;99.90
28761;DHT22;15917;50.014;8.352;2023-11-21T12:43:17;12.10;99.90
28761;DHT22;15917;50.014;8.352;2023-11-21T12:45:43;11.90;99.90
28761;DHT22;15917;50.014;8.352;2023-11-21T12:48:09;11.80;99.90
28761;DHT22;15917;50.014;8.352;2023-11-21T12:50:37;11.80;99.90
28761;DHT22;15917;50.014;8.352;2023-11-21T12:53:04;11.70;99.90
28761;DHT22;15917;50.014;8.352;2023-11-21T12:55:32;11.60;99.90
28761;DHT22;15917;50.014;8.352;2023-11-21T12:58:01;11.70;99.90
28761;DHT22;15917;50.014;8.352;2023-11-21T13:00:36;11.60;99.90
28761;DHT22;15917;50.014;8.352;2023-11-21T13:03:04;11.60;99.90
28761;DHT22;15917;50.014;8.352;2023-11-21T13:05:38;11.60;99.90
28761;DHT22;15917;50.014;8.352;2023-11-21T13:08:06;11.50;99.90
28761;DHT22;15917;50.014;8.352;2023-11-21T13:10:34;11.70;99.90
28761;DHT22;15917;50.014;8.352;2023-11-21T13:13:02;11.70;99.90
28761;DHT22;15917;50.014;8.352;2023-11-21T13:15:31;11.70;99.90
28761;DHT22;15917;50.014;8.352;2023-11-21T13:17:57;11.70;99.90
28761;DHT22;15917;50.014;8.352;2023-11-21T13:20:24;11.60;99.90
28761;DHT22;15917;50.014;8.352;2023-11-21T13:22:54;11.60;99.90
28761;DHT22;15917;50.014;8.352;2023-11-21T13:25:23;11.50;99.90
28761;DHT22;15917;50.014;8.352;2023-11-21T13:27:49;11.50;99.90
28761;DHT22;15917;50.014;8.352;2023-11-21T13:30:16;11.50;99.90
28761;DHT22;15917;50.014;8.352;2023-11-21T13:32:45;11.50;99.90
28761;DHT22;15917;50.014;8.352;2023-11-21T13:35:12;11.40;99.90
28761;DHT22;15917;50.014;8.352;2023-11-21T13:37:48;11.30;99.90
28761;DHT22;15917;50.014;8.352;2023-11-21T13:40:15;11.40;99.90
28761;DHT22;15917;50.014;8.352;2023-11-21T13:42:45;11.40;99.90
28761;DHT22;15917;50.014;8.352;2023-11-21T13:45:11;11.50;99.90
28761;DHT22;15917;50.014;8.352;2023-11-21T13:47:38;11.60;99.90
28761;DHT22;15917;50.014;8.352;2023-11-21T13:50:05;11.70;99.90
28761;DHT22;15917;50.014;8.352;2023-11-21T13:52:39;11.80;99.90
28761;DHT22;15917;50.014;8.352;2023-11-21T13:55:05;11.80;99.90
28761;DHT22;15917;50.014;8.352;2023-11-21T13:57:39;11.90;99.90
28761;DHT22;15917;50.014;8.352;2023-11-21T14:00:05;12.20;99.90
28761;DHT22;15917;50.014;8.352;2023-11-21T14:02:36;12.30;99.90
28761;DHT22;15917;50.014;8.352;2023-11-21T14:05:07;12.50;99.90
28761;DHT22;15917;50.014;8.352;2023-11-21T14:07:35;12.50;99.90
28761;DHT22;15917;50.014;8.352;2023-11-21T14:10:05;12.30;99.90
28761;DHT22;15917;50.014;8.352;2023-11-21T14:12:33;12.40;99.90
28761;DHT22;15917;50.014;8.352;2023-11-21T14:15:01;12.30;99.90
28761;DHT22;15917;50.014;8.352;2023-11-21T14:17:30;12.30;99.90
28761;DHT22;15917;50.014;8.352;2023-11-21T14:19:56;12.20;99.90
28761;DHT22;15917;50.014;8.352;2023-11-21T14:22:21;12.10;99.90
28761;DHT22;15917;50.014;8.352;2023-11-21T14:24:47;12.10;99.90
28761;DHT22;15917;50.014;8.352;2023-11-21T14:27:15;12.00;99.90
28761;DHT22;15917;50.014;8.352;2023-11-21T14:29:41;11.90;99.90
28761;DHT22;15917;50.014;8.352;2023-11-21T14:32:10;11.80;99.90
28761;DHT22;15917;50.014;8.352;2023-11-21T14:34:35;11.70;99.90
28761;DHT22;15917;50.014;8.352;2023-11-21T14:37:02;11.60;99.90
28761;DHT22;15917;50.014;8.352;2023-11-21T14:39:28;11.60;99.90
28761;DHT22;15917;50.014;8.352;2023-11-21T14:41:55;11.50;99.90
28761;DHT22;15917;50.014;8.352;2023-11-21T14:44:22;11.50;99.90
28761;DHT22;15917;50.014;8.352;2023-11-21T14:46:52;12.60;99.90
28761;DHT22;15917;50.014;8.352;2023-11-21T14:49:19;13.10;99.90
28761;DHT22;15917;50.014;8.352;2023-11-21T14:51:50;13.30;99.90
28761;DHT22;15917;50.014;8.352;2023-11-21T14:54:29;12.90;99.90
28761;DHT22;15917;50.014;8.352;2023-11-21T14:57:12;12.50;99.90
28761;DHT22;15917;50.014;8.352;2023-11-21T14:59:49;12.20;99.90
28761;DHT22;15917;50.014;8.352;2023-11-21T15:02:18;12.00;99.90
28761;DHT22;15917;50.014;8.352;2023-11-21T15:04:51;11.80;99.90
28761;DHT22;15917;50.014;8.352;2023-11-21T15:07:18;11.70;99.90
28761;DHT22;15917;50.014;8.352;2023-11-21T15:09:44;11.50;99.90
28761;DHT22;15917;50.014;8.352;2023-11-21T15:12:12;11.40;99.90
28761;DHT22;15917;50.014;8.352;2023-11-21T15:14:44;11.40;99.90
28761;DHT22;15917;50.014;8.352;2023-11-21T15:17:12;11.30;99.90
28761;DHT22;15917;50.014;8.352;2023-11-21T15:19:42;11.30;99.90
28761;DHT22;15917;50.014;8.352;2023-11-21T15:22:09;11.20;99.90
28761;DHT22;15917;50.014;8.352;2023-11-21T15:24:36;11.20;99.90
28761;DHT22;15917;50.014;8.352;2023-11-21T15:27:01;11.20;99.90
28761;DHT22;15917;50.014;8.352;2023-11-21T15:29:29;11.10;99.90
28761;DHT22;15917;50.014;8.352;2023-11-21T15:31:54;11.10;99.90
28761;DHT22;15917;50.014;8.352;2023-11-21T15:34:22;11.10;99.90
28761;DHT22;15917;50.014;8.352;2023-11-21T15:36:47;11.10;99.90
28761;DHT22;15917;50.014;8.352;2023-11-21T15:39:16;11.10;99.90
28761;DHT22;15917;50.014;8.352;2023-11-21T15:41:41;11.10;99.90
28761;DHT22;15917;50.014;8.352;2023-11-21T15:44:07;11.00;99.90
28761;DHT22;15917;50.014;8.352;2023-11-21T15:46:35;11.00;99.90
28761;DHT22;15917;50.014;8.352;2023-11-21T15:49:02;11.00;99.90
28761;DHT22;15917;50.014;8.352;2023-11-21T15:51:36;10.90;99.90